Atkinson, NE (68713)

3:51 PM CST on December 03, 2016 (GMT -0600)
The O'Neill Municipal-Baker | | Change Station

Elev 2031 ft 42.47 °N, 98.69 °W | Updated 16 minutes ago

Scattered Clouds
Scattered Clouds
40 °F
Feels Like 30 °F
N
20
Wind Variable Wind from South
Gusts 26 mph

Today
High -- | Low -- °F
--% Chance of Precip.
Yesterday
High -- | Low -- °F
Precip. -- in
Pressure 30.01 in
Visibility 10.0 miles
Clouds Scattered Clouds 1800 ft
Windchill 30 °F
Dew Point 32 °F
Humidity 75%
Rainfall 0.00 in
Snow Depth Not available.
7:48 AM 5:03 PM
Waxing Crescent, 17% visible
METAR KONL 032135Z AUTO 17017G23KT 10SM SCT018 04/00 A3001 RMK AO2 T00440003
Pressure 30.01 in
Visibility 10.0 miles
Clouds Scattered Clouds 1800 ft
Windchill 30 °F
Dew Point 32 °F
Humidity 75%
Rainfall 0.00 in
Snow Depth Not available.
7:48 AM 5:03 PM
Waxing Crescent, 17% visible
METAR KONL 032135Z AUTO 17017G23KT 10SM SCT018 04/00 A3001 RMK AO2 T00440003

10-Day Weather Forecast

Almanac

Astronomy

Dec. 03, 2016 Rise Set
Actual Time
Civil Twilight
Nautical Twilight
Astronomical Twilight
Moon
Length of Visible Light
Length of Day
Tomorrow will be .
, % of the Moon is Illuminated

Today's Extremes

State Highs State Lows

Community

WunderPhotos

Upload Photos

1,955,506 photos uploaded!

WunderBlog® & News

Nearby

Air Quality

  Air Quality AQ Index Pollutant
Not available.

Snow Depth

Station Depth Elevation

Earthquake Activity

City Distance Mag. Time & Date
Minimum magnitude displayed is 2.5.

Coastal Water Temperatures

Place Temperature

Stations

Nearby Weather Stations

Station Location Temp. Windchill Dew Point Humidity Wind Precip. Elev Updated Type
                   

Watches & Warnings

There are currently no watches in effect.